Kezdőlap
METAR-TAF:

METAR-TAF

Repülőterek :

Kimmirut, Nunavut, Kanada

földrajzi szélesség: 62-51N, földrajzi hosszúság: 069-53W, magasság: 53 m

Jelenlegi meteorológiai megfigyelések

A jelentés 24 perccel ezelõtt készült, 18:00 UTC
Északi szél 13 kt
Hőmérséklet -23°C
Páratartalom 63%
Légköri nyomás 1022 hPa
Látótávolság: 24.1 km
Derült ég
alacsony hófúvás

METAR: CYLC 101800Z 01013KT 15SM DRSN SKC M23/M28 A3018 RMK SLP230

Idő: 13:24 (18:24 UTC)


TAF: hiányzik

Meteorológiai megfigyelések és előrejelzések több, mint 4000 repülőtéren (METAR és TAF jelentéseket).

A térképen piros és sárga pontok jelzik az elérhető meteorológiai állomásokat.

Mozgassa az egeret a pont fölött, hogy megjelenjen az állomás neve.

Azután kattintson az időjárási megfigyelések és előrejelzések megtekintéséhez.

A térkép megváltoztatása: kattintson a fekete keresztel jelölt zöld gombra ráközelítéshez, a vonallal jelölt zöld gombra távolításhoz, vagy a zöld nyilakra a szomszédos térképek eléréséhez.


METAR-TAF: